• Join FlightAware (Why Join?)
  • Login
  • US Flag 
09:21AM EST


 

Airport Tracker/Info


-or-


 

Live Flight TrackerFlight Track Log ✈ FIN666 ✈ 02-Dec-2013 ✈ EKCH / CPH - EFHK / HEL

Flight Track Log - Related Links

Times and Time Zones

All times are in EST time to prevent confusion due to time zone crossing. See the FIN666 flight status page for this flight to view local times or setup timezone preferences in your user account.

Time Position Orientation Groundspeed Altitude Reporting Facility
EST Latitude Longitude Course Direction KTS MPH feet Rate Location/Type
07:24AM 55.8859 13.2108 49° Northeast  Level Estimated
07:25AM 55.9525 13.3507 50° Northeast  Level Estimated
07:26AM 56.0207 13.4949 50° Northeast  Level Estimated
07:27AM 56.0887 13.6395 50° Northeast  Level Estimated
07:28AM 56.1566 13.7846 50° Northeast  Level Estimated
07:29AM 56.2242 13.9302 50° Northeast  Level Estimated
07:30AM 56.2918 14.0763 50° Northeast  Level Estimated
07:31AM 56.3591 14.2230 50° Northeast  Level Estimated
07:32AM 56.4263 14.3702 50° Northeast  Level Estimated
07:33AM 56.4932 14.5179 51° Northeast  Level Estimated
07:34AM 56.5601 14.6661 51° Northeast  Level Estimated
07:35AM 56.6267 14.8148 51° Northeast  Level Estimated
07:36AM 56.6931 14.9641 51° Northeast  Level Estimated
07:37AM 56.7594 15.1139 51° Northeast  Level Estimated
07:38AM 56.8255 15.2642 51° Northeast  Level Estimated
07:39AM 56.8914 15.4151 51° Northeast  Level Estimated
07:40AM 56.9572 15.5665 51° Northeast  Level Estimated
07:41AM 57.0227 15.7184 52° Northeast  Level Estimated
07:42AM 57.0881 15.8709 52° Northeast  Level Estimated
07:43AM 57.1533 16.0239 52° Northeast  Level Estimated
07:44AM 57.2183 16.1774 52° Northeast  Level Estimated
07:45AM 57.2831 16.3315 52° Northeast  Level Estimated
07:46AM 57.3477 16.4861 52° Northeast  Level Estimated
07:47AM 57.4121 16.6413 52° Northeast  Level Estimated
07:48AM 57.4763 16.7970 52° Northeast  Level Estimated
07:49AM 57.5412 16.9553 53° Northeast  Level Estimated
07:50AM 57.6059 17.1142 53° Northeast  Level Estimated
07:51AM 57.6704 17.2737 53° Northeast  Level Estimated
07:52AM 57.7347 17.4338 53° Northeast  Level Estimated
07:53AM 57.7988 17.5944 53° Northeast  Level Estimated
07:54AM 57.8627 17.7555 53° Northeast  Level Estimated
07:55AM 57.9264 17.9173 53° Northeast  Level Estimated
07:56AM 57.9899 18.0796 54° Northeast  Level Estimated
07:57AM 58.0531 18.2425 54° Northeast  Level Estimated
07:58AM 58.1162 18.4060 54° Northeast  Level Estimated
07:59AM 58.1790 18.5701 54° Northeast  Level Estimated
08:00AM 58.2417 18.7347 54° Northeast  Level Estimated
08:01AM 58.3041 18.8999 54° Northeast  Level Estimated
08:02AM 58.3663 19.0657 54° Northeast  Level Estimated
08:03AM 58.4283 19.2321 55° Northeast  Level Estimated
08:04AM 58.4901 19.3991 55° Northeast  Level Estimated
08:05AM 58.5517 19.5666 55° Northeast  Level Estimated
08:06AM 58.6130 19.7348 55° Northeast  Level Estimated
08:07AM 58.6741 19.9035 55° Northeast  Level Estimated
08:08AM 58.7350 20.0729 55° Northeast  Level Estimated
08:09AM 58.7957 20.2428 55° Northeast  Level Estimated
08:10AM 58.8562 20.4133 56° Northeast  Level Estimated
08:11AM 58.9164 20.5844 56° Northeast  Level Estimated
08:12AM 58.9764 20.7561 56° Northeast  Level Estimated
08:13AM 59.0362 20.9284 56° Northeast  Level Estimated
08:14AM 59.0957 21.1014 56° Northeast  Level Estimated
08:15AM 59.1551 21.2749 56° Northeast  Level Estimated
08:16AM 59.2141 21.4490 56° Northeast  Level Estimated
08:17AM 59.2730 21.6237 57° Northeast  Level Estimated
08:18AM 59.3308 21.7967 57° Northeast  Level Estimated
08:19AM 59.3885 21.9703 57° Northeast  Level Estimated
08:20AM 59.4458 22.1445 57° Northeast  Level Estimated
08:21AM 59.5030 22.3193 57° Northeast  Level Estimated
08:22AM 59.5599 22.4946 57° Northeast  Level Estimated
08:23AM 59.6166 22.6706 57° Northeast  Level Estimated
08:24AM 59.6730 22.8472 58° Northeast  Level Estimated
08:25AM 59.7293 23.0243 58° Northeast  Level Estimated
08:26AM 59.7852 23.2020 58° Northeast  Level Estimated
08:27AM 59.8410 23.3804 58° Northeast  Level Estimated
08:28AM 59.8964 23.5593 58° Northeast  Level Estimated
08:29AM 59.9517 23.7388 58° Northeast  Level Estimated
08:30AM 60.0067 23.9190 59° Northeast  Level Estimated
08:31AM 60.0614 24.0997 59° Northeast  Level Estimated
08:32AM 60.1159 24.2810 59° Northeast  Level Estimated
08:33AM 60.1702 24.4630 59° Northeast  Level Estimated
08:34AM 60.2242 24.6455 59° Northeast  Level Estimated
08:35AM 60.2780 24.8286 59° Northeast  Level Estimated
08:36AM 60.3172 24.9633 59° Northeast  Level Estimated
08:37AM 60.3172 24.9633 37° Northeast  Level Estimated
08:38AM 60.3172 24.9633 37° Northeast  Level Estimated
08:39AM 60.3172 24.9633 37° Northeast  Level Estimated
08:40AM 60.3172 24.9633 37° Northeast  Level Estimated
08:41AM 60.3172 24.9633 37° Northeast  Level Estimated
08:42AM 60.3172 24.9633 37° Northeast  Level Estimated
08:43AM 60.3172 24.9633 37° Northeast  Level Estimated
08:44AM 60.3172 24.9633 37° Northeast  Level Estimated
08:45AM 60.3172 24.9633 37° Northeast  Level Estimated
08:46AM 60.3172 24.9633 37° Northeast  Level Estimated
08:47AM 60.3172 24.9633 37° Northeast  Level Estimated
08:48AM 60.3172 24.9633 37° Northeast  Level Estimated